sensor_id;sensor_type;location;lat;lon;timestamp;P1;durP1;ratioP1;P2;durP2;ratioP2
63189;SDS011;49286;44.460;26.114;2023-01-28T00:00:03;16.55;;;10.48;;
63189;SDS011;49286;44.460;26.114;2023-01-28T00:02:31;18.15;;;9.55;;
63189;SDS011;49286;44.460;26.114;2023-01-28T00:04:57;19.00;;;9.77;;
63189;SDS011;49286;44.460;26.114;2023-01-28T00:07:22;17.60;;;10.02;;
63189;SDS011;49286;44.460;26.114;2023-01-28T00:09:49;21.95;;;11.85;;
63189;SDS011;49286;44.460;26.114;2023-01-28T00:12:15;24.20;;;10.63;;
63189;SDS011;49286;44.460;26.114;2023-01-28T00:14:40;23.27;;;13.57;;
63189;SDS011;49286;44.460;26.114;2023-01-28T00:17:06;19.00;;;11.02;;
63189;SDS011;49286;44.460;26.114;2023-01-28T00:19:31;18.90;;;10.63;;
63189;SDS011;49286;44.460;26.114;2023-01-28T00:21:57;19.45;;;13.45;;
63189;SDS011;49286;44.460;26.114;2023-01-28T00:24:22;22.67;;;12.43;;
63189;SDS011;49286;44.460;26.114;2023-01-28T00:26:48;21.33;;;11.45;;
63189;SDS011;49286;44.460;26.114;2023-01-28T00:29:13;21.15;;;12.85;;
63189;SDS011;49286;44.460;26.114;2023-01-28T00:31:39;30.52;;;15.48;;
63189;SDS011;49286;44.460;26.114;2023-01-28T00:34:05;21.40;;;13.00;;
63189;SDS011;49286;44.460;26.114;2023-01-28T00:36:32;19.55;;;11.43;;
63189;SDS011;49286;44.460;26.114;2023-01-28T00:38:58;23.40;;;13.35;;
63189;SDS011;49286;44.460;26.114;2023-01-28T00:41:25;26.45;;;12.73;;
63189;SDS011;49286;44.460;26.114;2023-01-28T00:43:52;17.95;;;11.73;;
63189;SDS011;49286;44.460;26.114;2023-01-28T00:46:18;19.92;;;11.48;;
63189;SDS011;49286;44.460;26.114;2023-01-28T00:48:45;19.70;;;10.25;;
63189;SDS011;49286;44.460;26.114;2023-01-28T00:51:12;22.67;;;9.10;;
63189;SDS011;49286;44.460;26.114;2023-01-28T00:53:38;16.77;;;8.38;;
63189;SDS011;49286;44.460;26.114;2023-01-28T00:56:05;15.82;;;9.50;;
63189;SDS011;49286;44.460;26.114;2023-01-28T00:58:32;16.67;;;7.55;;
63189;SDS011;49286;44.460;26.114;2023-01-28T01:03:37;13.57;;;8.43;;
63189;SDS011;49286;44.460;26.114;2023-01-28T01:06:03;14.13;;;8.68;;
63189;SDS011;49286;44.460;26.114;2023-01-28T01:08:29;20.40;;;10.02;;
63189;SDS011;49286;44.460;26.114;2023-01-28T01:11:02;14.27;;;8.98;;
63189;SDS011;49286;44.460;26.114;2023-01-28T01:13:29;15.15;;;9.00;;
63189;SDS011;49286;44.460;26.114;2023-01-28T01:18:30;14.48;;;9.02;;
63189;SDS011;49286;44.460;26.114;2023-01-28T01:20:56;14.70;;;8.35;;
63189;SDS011;49286;44.460;26.114;2023-01-28T01:23:26;15.80;;;9.07;;
63189;SDS011;49286;44.460;26.114;2023-01-28T01:25:53;14.65;;;8.43;;
63189;SDS011;49286;44.460;26.114;2023-01-28T01:28:21;15.80;;;8.98;;
63189;SDS011;49286;44.460;26.114;2023-01-28T01:30:47;16.35;;;7.72;;
63189;SDS011;49286;44.460;26.114;2023-01-28T01:33:13;21.33;;;9.35;;
63189;SDS011;49286;44.460;26.114;2023-01-28T01:35:40;13.00;;;7.15;;
63189;SDS011;49286;44.460;26.114;2023-01-28T01:38:06;47.10;;;10.50;;
63189;SDS011;49286;44.460;26.114;2023-01-28T01:40:33;14.05;;;8.05;;
63189;SDS011;49286;44.460;26.114;2023-01-28T01:42:58;14.50;;;8.90;;
63189;SDS011;49286;44.460;26.114;2023-01-28T01:45:24;14.77;;;8.27;;
63189;SDS011;49286;44.460;26.114;2023-01-28T01:47:56;20.25;;;9.75;;
63189;SDS011;49286;44.460;26.114;2023-01-28T01:52:53;18.13;;;10.98;;
63189;SDS011;49286;44.460;26.114;2023-01-28T01:55:22;14.27;;;10.23;;
63189;SDS011;49286;44.460;26.114;2023-01-28T01:57:50;19.77;;;11.35;;
63189;SDS011;49286;44.460;26.114;2023-01-28T02:00:18;19.13;;;10.30;;
63189;SDS011;49286;44.460;26.114;2023-01-28T02:02:45;21.73;;;11.55;;
63189;SDS011;49286;44.460;26.114;2023-01-28T02:05:13;26.38;;;12.48;;
63189;SDS011;49286;44.460;26.114;2023-01-28T02:07:42;17.45;;;10.23;;
63189;SDS011;49286;44.460;26.114;2023-01-28T02:10:09;13.02;;;8.80;;
63189;SDS011;49286;44.460;26.114;2023-01-28T02:12:35;13.73;;;10.25;;
63189;SDS011;49286;44.460;26.114;2023-01-28T02:17:35;15.68;;;9.90;;
63189;SDS011;49286;44.460;26.114;2023-01-28T02:20:03;14.43;;;7.47;;
63189;SDS011;49286;44.460;26.114;2023-01-28T02:30:41;13.32;;;8.18;;
63189;SDS011;49286;44.460;26.114;2023-01-28T02:33:15;10.63;;;6.13;;
63189;SDS011;49286;44.460;26.114;2023-01-28T02:35:48;13.32;;;6.95;;
63189;SDS011;49286;44.460;26.114;2023-01-28T02:38:19;14.13;;;7.78;;
63189;SDS011;49286;44.460;26.114;2023-01-28T02:40:47;11.05;;;6.88;;
63189;SDS011;49286;44.460;26.114;2023-01-28T02:43:34;13.68;;;7.43;;
63189;SDS011;49286;44.460;26.114;2023-01-28T02:48:58;20.58;;;7.00;;
63189;SDS011;49286;44.460;26.114;2023-01-28T02:53:59;12.80;;;6.22;;
63189;SDS011;49286;44.460;26.114;2023-01-28T02:56:41;13.82;;;6.10;;
63189;SDS011;49286;44.460;26.114;2023-01-28T02:59:25;13.77;;;6.72;;
63189;SDS011;49286;44.460;26.114;2023-01-28T03:04:55;14.43;;;7.05;;
63189;SDS011;49286;44.460;26.114;2023-01-28T03:07:22;15.77;;;7.18;;
63189;SDS011;49286;44.460;26.114;2023-01-28T03:09:53;14.55;;;8.05;;
63189;SDS011;49286;44.460;26.114;2023-01-28T03:12:23;17.05;;;9.65;;
63189;SDS011;49286;44.460;26.114;2023-01-28T03:15:13;15.85;;;10.13;;
63189;SDS011;49286;44.460;26.114;2023-01-28T03:18:05;20.38;;;10.20;;
63189;SDS011;49286;44.460;26.114;2023-01-28T03:21:03;17.90;;;9.90;;
63189;SDS011;49286;44.460;26.114;2023-01-28T03:26:41;25.42;;;13.35;;
63189;SDS011;49286;44.460;26.114;2023-01-28T03:29:38;28.05;;;13.93;;
63189;SDS011;49286;44.460;26.114;2023-01-28T03:32:25;23.05;;;13.93;;
63189;SDS011;49286;44.460;26.114;2023-01-28T03:35:09;17.65;;;11.60;;
63189;SDS011;49286;44.460;26.114;2023-01-28T03:37:57;26.10;;;13.15;;
63189;SDS011;49286;44.460;26.114;2023-01-28T03:40:24;25.40;;;14.68;;
63189;SDS011;49286;44.460;26.114;2023-01-28T03:42:51;30.55;;;17.80;;
63189;SDS011;49286;44.460;26.114;2023-01-28T03:45:18;26.30;;;12.25;;
63189;SDS011;49286;44.460;26.114;2023-01-28T03:47:45;17.70;;;13.15;;
63189;SDS011;49286;44.460;26.114;2023-01-28T03:50:11;20.30;;;12.13;;
63189;SDS011;49286;44.460;26.114;2023-01-28T03:52:37;14.93;;;8.25;;
63189;SDS011;49286;44.460;26.114;2023-01-28T03:55:02;19.25;;;9.75;;
63189;SDS011;49286;44.460;26.114;2023-01-28T03:57:37;14.27;;;8.27;;
63189;SDS011;49286;44.460;26.114;2023-01-28T04:00:03;15.38;;;10.45;;
63189;SDS011;49286;44.460;26.114;2023-01-28T04:02:30;20.95;;;10.70;;
63189;SDS011;49286;44.460;26.114;2023-01-28T04:04:56;17.38;;;10.25;;
63189;SDS011;49286;44.460;26.114;2023-01-28T04:07:22;20.38;;;13.73;;
63189;SDS011;49286;44.460;26.114;2023-01-28T04:09:48;16.73;;;9.98;;
63189;SDS011;49286;44.460;26.114;2023-01-28T04:12:13;15.27;;;8.70;;
63189;SDS011;49286;44.460;26.114;2023-01-28T04:14:39;13.07;;;8.88;;
63189;SDS011;49286;44.460;26.114;2023-01-28T04:17:05;17.65;;;12.45;;
63189;SDS011;49286;44.460;26.114;2023-01-28T04:19:34;13.13;;;8.50;;
63189;SDS011;49286;44.460;26.114;2023-01-28T04:22:02;13.68;;;8.35;;
63189;SDS011;49286;44.460;26.114;2023-01-28T04:24:31;15.77;;;7.82;;
63189;SDS011;49286;44.460;26.114;2023-01-28T04:26:57;17.23;;;10.52;;
63189;SDS011;49286;44.460;26.114;2023-01-28T04:29:23;16.80;;;10.65;;
63189;SDS011;49286;44.460;26.114;2023-01-28T04:31:48;17.90;;;9.82;;
63189;SDS011;49286;44.460;26.114;2023-01-28T04:34:14;13.70;;;9.18;;
63189;SDS011;49286;44.460;26.114;2023-01-28T04:36:41;16.98;;;9.73;;
63189;SDS011;49286;44.460;26.114;2023-01-28T04:39:06;19.98;;;11.02;;
63189;SDS011;49286;44.460;26.114;2023-01-28T04:41:32;17.30;;;9.80;;
63189;SDS011;49286;44.460;26.114;2023-01-28T04:43:57;15.65;;;9.40;;
63189;SDS011;49286;44.460;26.114;2023-01-28T04:46:23;22.05;;;10.90;;
63189;SDS011;49286;44.460;26.114;2023-01-28T04:48:48;19.48;;;10.93;;
63189;SDS011;49286;44.460;26.114;2023-01-28T04:51:14;16.10;;;8.80;;
63189;SDS011;49286;44.460;26.114;2023-01-28T04:53:39;13.50;;;8.18;;
63189;SDS011;49286;44.460;26.114;2023-01-28T04:56:05;17.73;;;10.00;;
63189;SDS011;49286;44.460;26.114;2023-01-28T04:58:31;15.93;;;8.55;;
63189;SDS011;49286;44.460;26.114;2023-01-28T05:00:57;15.60;;;8.60;;
63189;SDS011;49286;44.460;26.114;2023-01-28T05:03:24;14.80;;;8.18;;
63189;SDS011;49286;44.460;26.114;2023-01-28T05:05:50;18.05;;;10.65;;
63189;SDS011;49286;44.460;26.114;2023-01-28T05:08:16;16.35;;;9.02;;
63189;SDS011;49286;44.460;26.114;2023-01-28T05:10:41;18.70;;;10.45;;
63189;SDS011;49286;44.460;26.114;2023-01-28T05:13:07;18.75;;;11.82;;
63189;SDS011;49286;44.460;26.114;2023-01-28T05:15:32;18.40;;;9.05;;
63189;SDS011;49286;44.460;26.114;2023-01-28T05:17:58;16.35;;;10.88;;
63189;SDS011;49286;44.460;26.114;2023-01-28T05:20:24;15.85;;;9.43;;
63189;SDS011;49286;44.460;26.114;2023-01-28T05:22:50;18.00;;;9.88;;
63189;SDS011;49286;44.460;26.114;2023-01-28T05:25:15;14.88;;;10.18;;
63189;SDS011;49286;44.460;26.114;2023-01-28T05:27:41;18.80;;;10.15;;
63189;SDS011;49286;44.460;26.114;2023-01-28T05:30:06;17.10;;;10.80;;
63189;SDS011;49286;44.460;26.114;2023-01-28T05:32:32;21.35;;;13.05;;
63189;SDS011;49286;44.460;26.114;2023-01-28T05:34:57;22.05;;;11.23;;
63189;SDS011;49286;44.460;26.114;2023-01-28T05:37:23;54.30;;;15.60;;
63189;SDS011;49286;44.460;26.114;2023-01-28T05:39:48;22.48;;;11.48;;
63189;SDS011;49286;44.460;26.114;2023-01-28T05:42:14;18.48;;;11.77;;
63189;SDS011;49286;44.460;26.114;2023-01-28T05:44:40;16.02;;;11.02;;
63189;SDS011;49286;44.460;26.114;2023-01-28T05:47:06;22.17;;;11.70;;
63189;SDS011;49286;44.460;26.114;2023-01-28T05:49:31;20.27;;;9.95;;
63189;SDS011;49286;44.460;26.114;2023-01-28T05:51:57;18.73;;;11.35;;
63189;SDS011;49286;44.460;26.114;2023-01-28T05:54:22;20.35;;;12.75;;
63189;SDS011;49286;44.460;26.114;2023-01-28T05:56:48;19.77;;;11.63;;
63189;SDS011;49286;44.460;26.114;2023-01-28T05:59:13;20.10;;;11.55;;
63189;SDS011;49286;44.460;26.114;2023-01-28T06:01:39;18.75;;;10.57;;
63189;SDS011;49286;44.460;26.114;2023-01-28T06:04:05;21.58;;;13.98;;
63189;SDS011;49286;44.460;26.114;2023-01-28T06:06:30;21.55;;;10.90;;
63189;SDS011;49286;44.460;26.114;2023-01-28T06:08:56;21.90;;;10.68;;
63189;SDS011;49286;44.460;26.114;2023-01-28T06:11:22;18.23;;;12.00;;
63189;SDS011;49286;44.460;26.114;2023-01-28T06:13:47;20.42;;;11.10;;
63189;SDS011;49286;44.460;26.114;2023-01-28T06:16:13;18.17;;;12.20;;
63189;SDS011;49286;44.460;26.114;2023-01-28T06:18:38;21.48;;;13.23;;
63189;SDS011;49286;44.460;26.114;2023-01-28T06:21:05;20.98;;;13.07;;
63189;SDS011;49286;44.460;26.114;2023-01-28T06:23:31;18.67;;;10.15;;
63189;SDS011;49286;44.460;26.114;2023-01-28T06:25:56;18.23;;;10.88;;
63189;SDS011;49286;44.460;26.114;2023-01-28T06:28:22;17.88;;;10.60;;
63189;SDS011;49286;44.460;26.114;2023-01-28T06:30:49;17.27;;;10.52;;
63189;SDS011;49286;44.460;26.114;2023-01-28T06:33:17;15.55;;;10.18;;
63189;SDS011;49286;44.460;26.114;2023-01-28T06:35:43;17.85;;;10.48;;
63189;SDS011;49286;44.460;26.114;2023-01-28T06:38:10;14.60;;;9.00;;
63189;SDS011;49286;44.460;26.114;2023-01-28T06:40:36;17.63;;;9.95;;
63189;SDS011;49286;44.460;26.114;2023-01-28T06:43:03;15.73;;;10.40;;
63189;SDS011;49286;44.460;26.114;2023-01-28T06:45:28;15.52;;;10.55;;
63189;SDS011;49286;44.460;26.114;2023-01-28T06:47:54;18.95;;;10.80;;
63189;SDS011;49286;44.460;26.114;2023-01-28T06:50:20;14.25;;;9.43;;
63189;SDS011;49286;44.460;26.114;2023-01-28T06:52:45;19.27;;;10.75;;
63189;SDS011;49286;44.460;26.114;2023-01-28T06:55:11;13.05;;;8.80;;
63189;SDS011;49286;44.460;26.114;2023-01-28T06:57:37;16.30;;;10.50;;
63189;SDS011;49286;44.460;26.114;2023-01-28T07:00:04;14.93;;;9.35;;
63189;SDS011;49286;44.460;26.114;2023-01-28T07:02:32;19.80;;;10.02;;
63189;SDS011;49286;44.460;26.114;2023-01-28T07:04:57;30.25;;;11.68;;
63189;SDS011;49286;44.460;26.114;2023-01-28T07:07:23;22.83;;;12.43;;
63189;SDS011;49286;44.460;26.114;2023-01-28T07:09:48;19.27;;;10.80;;
63189;SDS011;49286;44.460;26.114;2023-01-28T07:12:14;15.38;;;8.98;;
63189;SDS011;49286;44.460;26.114;2023-01-28T07:14:39;18.52;;;10.60;;
63189;SDS011;49286;44.460;26.114;2023-01-28T07:17:05;16.55;;;10.50;;
63189;SDS011;49286;44.460;26.114;2023-01-28T07:19:30;20.23;;;11.85;;
63189;SDS011;49286;44.460;26.114;2023-01-28T07:21:56;20.35;;;10.90;;
63189;SDS011;49286;44.460;26.114;2023-01-28T07:24:24;19.63;;;11.75;;
63189;SDS011;49286;44.460;26.114;2023-01-28T07:26:50;17.02;;;10.15;;
63189;SDS011;49286;44.460;26.114;2023-01-28T07:29:15;16.40;;;9.98;;
63189;SDS011;49286;44.460;26.114;2023-01-28T07:31:41;22.88;;;13.70;;
63189;SDS011;49286;44.460;26.114;2023-01-28T07:34:07;17.73;;;11.35;;
63189;SDS011;49286;44.460;26.114;2023-01-28T07:36:33;23.52;;;12.38;;
63189;SDS011;49286;44.460;26.114;2023-01-28T07:38:59;16.52;;;10.30;;
63189;SDS011;49286;44.460;26.114;2023-01-28T07:41:24;15.43;;;10.57;;
63189;SDS011;49286;44.460;26.114;2023-01-28T07:43:49;14.73;;;10.45;;
63189;SDS011;49286;44.460;26.114;2023-01-28T07:46:15;22.90;;;9.73;;
63189;SDS011;49286;44.460;26.114;2023-01-28T07:48:40;17.58;;;11.02;;
63189;SDS011;49286;44.460;26.114;2023-01-28T07:51:06;12.85;;;9.35;;
63189;SDS011;49286;44.460;26.114;2023-01-28T07:53:31;16.00;;;9.63;;
63189;SDS011;49286;44.460;26.114;2023-01-28T07:55:58;20.42;;;11.07;;
63189;SDS011;49286;44.460;26.114;2023-01-28T07:58:27;16.48;;;10.73;;
63189;SDS011;49286;44.460;26.114;2023-01-28T08:00:55;17.05;;;11.77;;
63189;SDS011;49286;44.460;26.114;2023-01-28T08:03:22;23.02;;;14.82;;
63189;SDS011;49286;44.460;26.114;2023-01-28T08:05:48;18.30;;;10.10;;
63189;SDS011;49286;44.460;26.114;2023-01-28T08:08:15;22.83;;;11.25;;
63189;SDS011;49286;44.460;26.114;2023-01-28T08:10:41;14.40;;;10.88;;
63189;SDS011;49286;44.460;26.114;2023-01-28T08:13:11;21.67;;;11.75;;
63189;SDS011;49286;44.460;26.114;2023-01-28T08:15:37;18.38;;;12.60;;
63189;SDS011;49286;44.460;26.114;2023-01-28T08:18:04;17.40;;;11.13;;
63189;SDS011;49286;44.460;26.114;2023-01-28T08:20:31;16.00;;;11.35;;
63189;SDS011;49286;44.460;26.114;2023-01-28T08:23:16;16.33;;;10.30;;
63189;SDS011;49286;44.460;26.114;2023-01-28T08:25:43;18.48;;;11.75;;
63189;SDS011;49286;44.460;26.114;2023-01-28T08:28:09;21.15;;;12.60;;
63189;SDS011;49286;44.460;26.114;2023-01-28T08:30:36;18.65;;;10.80;;
63189;SDS011;49286;44.460;26.114;2023-01-28T08:33:03;18.40;;;12.07;;
63189;SDS011;49286;44.460;26.114;2023-01-28T08:35:29;20.42;;;11.68;;
63189;SDS011;49286;44.460;26.114;2023-01-28T08:37:54;17.48;;;10.75;;
63189;SDS011;49286;44.460;26.114;2023-01-28T08:40:23;22.73;;;10.80;;
63189;SDS011;49286;44.460;26.114;2023-01-28T08:42:49;21.58;;;12.25;;
63189;SDS011;49286;44.460;26.114;2023-01-28T08:45:16;21.13;;;13.43;;
63189;SDS011;49286;44.460;26.114;2023-01-28T08:47:47;20.73;;;12.10;;
63189;SDS011;49286;44.460;26.114;2023-01-28T08:50:16;13.55;;;9.68;;
63189;SDS011;49286;44.460;26.114;2023-01-28T08:52:45;18.63;;;11.43;;
63189;SDS011;49286;44.460;26.114;2023-01-28T08:55:11;15.80;;;11.07;;
63189;SDS011;49286;44.460;26.114;2023-01-28T08:57:37;21.88;;;12.63;;
63189;SDS011;49286;44.460;26.114;2023-01-28T09:00:04;26.25;;;17.65;;
63189;SDS011;49286;44.460;26.114;2023-01-28T09:02:30;18.40;;;12.07;;
63189;SDS011;49286;44.460;26.114;2023-01-28T09:04:56;21.73;;;12.65;;
63189;SDS011;49286;44.460;26.114;2023-01-28T09:07:21;20.23;;;13.35;;
63189;SDS011;49286;44.460;26.114;2023-01-28T09:09:47;14.10;;;9.10;;
63189;SDS011;49286;44.460;26.114;2023-01-28T09:12:12;14.80;;;9.82;;
63189;SDS011;49286;44.460;26.114;2023-01-28T09:14:38;17.70;;;13.02;;
63189;SDS011;49286;44.460;26.114;2023-01-28T09:17:04;17.65;;;11.23;;
63189;SDS011;49286;44.460;26.114;2023-01-28T09:19:29;20.23;;;13.05;;
63189;SDS011;49286;44.460;26.114;2023-01-28T09:21:55;19.02;;;12.93;;
63189;SDS011;49286;44.460;26.114;2023-01-28T09:24:20;19.05;;;13.15;;
63189;SDS011;49286;44.460;26.114;2023-01-28T09:26:49;18.42;;;12.68;;
63189;SDS011;49286;44.460;26.114;2023-01-28T09:29:14;22.33;;;12.52;;
63189;SDS011;49286;44.460;26.114;2023-01-28T09:31:40;44.60;;;17.08;;
63189;SDS011;49286;44.460;26.114;2023-01-28T09:34:06;18.65;;;12.20;;
63189;SDS011;49286;44.460;26.114;2023-01-28T09:36:32;20.90;;;14.60;;
63189;SDS011;49286;44.460;26.114;2023-01-28T09:38:57;23.00;;;13.25;;
63189;SDS011;49286;44.460;26.114;2023-01-28T09:41:41;18.65;;;11.73;;
63189;SDS011;49286;44.460;26.114;2023-01-28T09:46:44;17.58;;;11.75;;
63189;SDS011;49286;44.460;26.114;2023-01-28T09:49:18;15.15;;;9.38;;
63189;SDS011;49286;44.460;26.114;2023-01-28T09:51:52;16.60;;;11.85;;
63189;SDS011;49286;44.460;26.114;2023-01-28T09:54:24;15.32;;;10.02;;
63189;SDS011;49286;44.460;26.114;2023-01-28T09:57:21;18.70;;;11.18;;
63189;SDS011;49286;44.460;26.114;2023-01-28T09:59:49;16.23;;;11.40;;
63189;SDS011;49286;44.460;26.114;2023-01-28T10:08:01;16.05;;;10.02;;
63189;SDS011;49286;44.460;26.114;2023-01-28T10:11:06;13.10;;;9.00;;
63189;SDS011;49286;44.460;26.114;2023-01-28T10:19:09;16.27;;;9.65;;
63189;SDS011;49286;44.460;26.114;2023-01-28T10:25:02;12.18;;;9.27;;
63189;SDS011;49286;44.460;26.114;2023-01-28T10:27:38;21.25;;;12.32;;
63189;SDS011;49286;44.460;26.114;2023-01-28T10:30:17;13.77;;;8.73;;
63189;SDS011;49286;44.460;26.114;2023-01-28T10:35:32;17.25;;;9.52;;
63189;SDS011;49286;44.460;26.114;2023-01-28T10:38:03;26.30;;;7.20;;
63189;SDS011;49286;44.460;26.114;2023-01-28T10:40:32;16.42;;;10.00;;
63189;SDS011;49286;44.460;26.114;2023-01-28T10:42:59;13.82;;;8.40;;
63189;SDS011;49286;44.460;26.114;2023-01-28T10:45:25;17.48;;;11.30;;
63189;SDS011;49286;44.460;26.114;2023-01-28T10:47:55;12.52;;;7.82;;
63189;SDS011;49286;44.460;26.114;2023-01-28T10:50:26;17.85;;;10.57;;
63189;SDS011;49286;44.460;26.114;2023-01-28T10:56:12;18.63;;;10.93;;
63189;SDS011;49286;44.460;26.114;2023-01-28T10:58:23;11.20;;;7.18;;
63189;SDS011;49286;44.460;26.114;2023-01-28T11:00:52;20.15;;;12.35;;
63189;SDS011;49286;44.460;26.114;2023-01-28T11:03:19;14.20;;;8.75;;
63189;SDS011;49286;44.460;26.114;2023-01-28T11:05:49;13.77;;;8.65;;
63189;SDS011;49286;44.460;26.114;2023-01-28T11:08:16;14.35;;;9.00;;
63189;SDS011;49286;44.460;26.114;2023-01-28T11:10:43;14.05;;;9.27;;
63189;SDS011;49286;44.460;26.114;2023-01-28T11:15:45;16.00;;;10.18;;
63189;SDS011;49286;44.460;26.114;2023-01-28T11:18:16;24.52;;;11.82;;
63189;SDS011;49286;44.460;26.114;2023-01-28T11:20:53;17.23;;;8.80;;
63189;SDS011;49286;44.460;26.114;2023-01-28T11:23:29;19.67;;;12.05;;
63189;SDS011;49286;44.460;26.114;2023-01-28T11:29:01;15.63;;;10.05;;
63189;SDS011;49286;44.460;26.114;2023-01-28T11:31:27;13.77;;;9.35;;
63189;SDS011;49286;44.460;26.114;2023-01-28T11:36:29;16.25;;;10.13;;
63189;SDS011;49286;44.460;26.114;2023-01-28T11:38:57;17.38;;;10.57;;
63189;SDS011;49286;44.460;26.114;2023-01-28T11:41:33;18.37;;;12.03;;
63189;SDS011;49286;44.460;26.114;2023-01-28T11:44:04;18.75;;;9.82;;
63189;SDS011;49286;44.460;26.114;2023-01-28T11:58:30;15.80;;;10.70;;
63189;SDS011;49286;44.460;26.114;2023-01-28T12:01:11;16.30;;;10.82;;
63189;SDS011;49286;44.460;26.114;2023-01-28T12:09:39;12.38;;;8.90;;
63189;SDS011;49286;44.460;26.114;2023-01-28T12:26:10;15.80;;;10.00;;
63189;SDS011;49286;44.460;26.114;2023-01-28T12:43:01;18.15;;;11.20;;
63189;SDS011;49286;44.460;26.114;2023-01-28T12:45:32;15.02;;;9.57;;
63189;SDS011;49286;44.460;26.114;2023-01-28T12:50:46;14.43;;;9.60;;
63189;SDS011;49286;44.460;26.114;2023-01-28T12:55:48;14.07;;;9.45;;
63189;SDS011;49286;44.460;26.114;2023-01-28T12:58:20;29.70;;;10.10;;
63189;SDS011;49286;44.460;26.114;2023-01-28T13:00:57;15.38;;;10.55;;
63189;SDS011;49286;44.460;26.114;2023-01-28T13:06:14;14.60;;;9.52;;
63189;SDS011;49286;44.460;26.114;2023-01-28T13:08:47;21.25;;;12.00;;
63189;SDS011;49286;44.460;26.114;2023-01-28T13:11:14;17.70;;;11.93;;
63189;SDS011;49286;44.460;26.114;2023-01-28T13:13:42;18.65;;;11.02;;
63189;SDS011;49286;44.460;26.114;2023-01-28T13:16:10;14.75;;;9.90;;
63189;SDS011;49286;44.460;26.114;2023-01-28T13:21:06;21.08;;;12.65;;
63189;SDS011;49286;44.460;26.114;2023-01-28T13:23:46;19.88;;;11.77;;
63189;SDS011;49286;44.460;26.114;2023-01-28T13:28:45;15.82;;;10.80;;
63189;SDS011;49286;44.460;26.114;2023-01-28T13:31:13;16.75;;;10.27;;
63189;SDS011;49286;44.460;26.114;2023-01-28T13:39:01;19.17;;;12.82;;
63189;SDS011;49286;44.460;26.114;2023-01-28T13:41:40;22.33;;;12.98;;
63189;SDS011;49286;44.460;26.114;2023-01-28T13:44:29;22.30;;;14.18;;
63189;SDS011;49286;44.460;26.114;2023-01-28T13:49:38;16.73;;;11.45;;
63189;SDS011;49286;44.460;26.114;2023-01-28T13:54:43;38.25;;;22.88;;
63189;SDS011;49286;44.460;26.114;2023-01-28T14:18:41;19.83;;;11.57;;
63189;SDS011;49286;44.460;26.114;2023-01-28T14:21:12;13.40;;;9.75;;
63189;SDS011;49286;44.460;26.114;2023-01-28T14:23:53;16.88;;;10.40;;
63189;SDS011;49286;44.460;26.114;2023-01-28T14:36:40;22.52;;;12.27;;
63189;SDS011;49286;44.460;26.114;2023-01-28T14:42:13;18.53;;;11.13;;
63189;SDS011;49286;44.460;26.114;2023-01-28T15:01:53;16.33;;;12.05;;
63189;SDS011;49286;44.460;26.114;2023-01-28T15:04:30;23.90;;;13.68;;
63189;SDS011;49286;44.460;26.114;2023-01-28T15:07:05;17.23;;;11.48;;
63189;SDS011;49286;44.460;26.114;2023-01-28T15:09:44;20.83;;;11.77;;
63189;SDS011;49286;44.460;26.114;2023-01-28T15:12:10;17.73;;;11.43;;
63189;SDS011;49286;44.460;26.114;2023-01-28T15:14:38;19.15;;;14.40;;
63189;SDS011;49286;44.460;26.114;2023-01-28T15:17:04;19.52;;;13.70;;
63189;SDS011;49286;44.460;26.114;2023-01-28T15:19:33;22.38;;;15.98;;
63189;SDS011;49286;44.460;26.114;2023-01-28T15:22:02;24.55;;;15.15;;
63189;SDS011;49286;44.460;26.114;2023-01-28T15:24:30;23.35;;;13.65;;
63189;SDS011;49286;44.460;26.114;2023-01-28T15:26:58;23.95;;;15.15;;
63189;SDS011;49286;44.460;26.114;2023-01-28T15:29:25;20.83;;;14.25;;
63189;SDS011;49286;44.460;26.114;2023-01-28T15:31:56;22.20;;;14.60;;
63189;SDS011;49286;44.460;26.114;2023-01-28T15:34:21;28.40;;;15.60;;
63189;SDS011;49286;44.460;26.114;2023-01-28T15:36:54;21.00;;;13.93;;
63189;SDS011;49286;44.460;26.114;2023-01-28T15:39:24;21.38;;;15.40;;
63189;SDS011;49286;44.460;26.114;2023-01-28T15:44:23;20.35;;;13.30;;
63189;SDS011;49286;44.460;26.114;2023-01-28T15:47:03;21.80;;;13.23;;
63189;SDS011;49286;44.460;26.114;2023-01-28T15:49:46;22.17;;;13.50;;
63189;SDS011;49286;44.460;26.114;2023-01-28T15:52:15;19.35;;;12.18;;
63189;SDS011;49286;44.460;26.114;2023-01-28T15:54:42;23.48;;;14.70;;
63189;SDS011;49286;44.460;26.114;2023-01-28T15:59:44;24.35;;;16.42;;
63189;SDS011;49286;44.460;26.114;2023-01-28T16:07:27;20.83;;;12.77;;
63189;SDS011;49286;44.460;26.114;2023-01-28T16:09:55;24.05;;;13.50;;
63189;SDS011;49286;44.460;26.114;2023-01-28T16:12:22;36.40;;;23.02;;
63189;SDS011;49286;44.460;26.114;2023-01-28T16:14:52;23.42;;;13.98;;
63189;SDS011;49286;44.460;26.114;2023-01-28T16:17:21;24.88;;;15.85;;
63189;SDS011;49286;44.460;26.114;2023-01-28T16:20:03;19.55;;;13.27;;
63189;SDS011;49286;44.460;26.114;2023-01-28T16:22:38;21.30;;;14.90;;
63189;SDS011;49286;44.460;26.114;2023-01-28T16:27:46;20.40;;;13.80;;
63189;SDS011;49286;44.460;26.114;2023-01-28T16:30:12;22.30;;;14.48;;
63189;SDS011;49286;44.460;26.114;2023-01-28T16:32:40;22.42;;;14.95;;
63189;SDS011;49286;44.460;26.114;2023-01-28T16:35:20;24.02;;;16.45;;
63189;SDS011;49286;44.460;26.114;2023-01-28T16:37:47;28.73;;;16.58;;
63189;SDS011;49286;44.460;26.114;2023-01-28T16:40:14;25.73;;;16.25;;
63189;SDS011;49286;44.460;26.114;2023-01-28T16:42:44;24.25;;;15.90;;
63189;SDS011;49286;44.460;26.114;2023-01-28T16:45:17;25.50;;;16.33;;
63189;SDS011;49286;44.460;26.114;2023-01-28T16:47:43;26.05;;;16.02;;
63189;SDS011;49286;44.460;26.114;2023-01-28T16:50:09;23.13;;;15.65;;
63189;SDS011;49286;44.460;26.114;2023-01-28T16:52:36;25.23;;;16.40;;
63189;SDS011;49286;44.460;26.114;2023-01-28T16:55:02;23.10;;;18.33;;
63189;SDS011;49286;44.460;26.114;2023-01-28T16:57:28;26.33;;;17.77;;
63189;SDS011;49286;44.460;26.114;2023-01-28T16:59:57;24.85;;;18.25;;
63189;SDS011;49286;44.460;26.114;2023-01-28T17:02:22;26.65;;;18.33;;
63189;SDS011;49286;44.460;26.114;2023-01-28T17:04:48;27.45;;;18.58;;
63189;SDS011;49286;44.460;26.114;2023-01-28T17:07:13;37.58;;;22.15;;
63189;SDS011;49286;44.460;26.114;2023-01-28T17:09:39;34.00;;;20.52;;
63189;SDS011;49286;44.460;26.114;2023-01-28T17:12:04;28.10;;;17.42;;
63189;SDS011;49286;44.460;26.114;2023-01-28T17:14:30;34.38;;;20.35;;
63189;SDS011;49286;44.460;26.114;2023-01-28T17:16:55;27.02;;;18.10;;
63189;SDS011;49286;44.460;26.114;2023-01-28T17:19:21;32.40;;;20.63;;
63189;SDS011;49286;44.460;26.114;2023-01-28T17:21:46;34.75;;;20.33;;
63189;SDS011;49286;44.460;26.114;2023-01-28T17:24:12;34.03;;;18.27;;
63189;SDS011;49286;44.460;26.114;2023-01-28T17:26:37;33.40;;;21.88;;
63189;SDS011;49286;44.460;26.114;2023-01-28T17:29:03;44.88;;;23.98;;
63189;SDS011;49286;44.460;26.114;2023-01-28T17:31:30;46.72;;;24.17;;
63189;SDS011;49286;44.460;26.114;2023-01-28T17:33:56;39.45;;;24.55;;
63189;SDS011;49286;44.460;26.114;2023-01-28T17:36:23;43.88;;;27.23;;